Time;durP1;ratioP1;P1;durP2;ratioP2;P2;SDS_P1;SDS_P2;PMS_P1;PMS_P2;Temp;Humidity;BMP_temperature;BMP_pressure;BME280_temperature;BME280_humidity;BME280_pressure;Samples;Min_cycle;Max_cycle;Signal;HPM_P1;HPM_P2
2022/01/30 00:01:51;;;;;;;;;;;;;;;;;;4993283;28;19928;-72
2022/01/30 00:04:18;;;;;;;;;;;;;;;;;;4999498;28;19913;-72
2022/01/30 00:06:45;;;;;;;;;;;;;;;;;;4998146;28;19917;-72
2022/01/30 00:09:17;;;;;;;;;;;;;;;;;;4999059;28;19917;-72
2022/01/30 00:11:48;;;;;;;;;;;;;;;;;;4998229;28;20406;-72
2022/01/30 00:14:17;;;;;;;;;;;;;;;;;;4994718;28;19917;-72
2022/01/30 00:16:43;;;;;;;;;;;;;;;;;;4986112;28;21426;-72
2022/01/30 00:19:31;;;;;;;;;;;;;;;;;;4974290;28;19925;-72
2022/01/30 00:22:15;;;;;;;;;;;;;;;;;;4981577;28;19917;-72
2022/01/30 00:24:57;;;;;;;;;;;;;;;;;;4998726;28;19923;-72
2022/01/30 00:27:30;;;;;;;;;;;;;;;;;;4986977;28;20380;-72
2022/01/30 00:29:57;;;;;;;;;;;;;;;;;;4998235;28;19914;-73
2022/01/30 00:32:24;;;;;;;;;;;;;;;;;;4989288;28;19991;-72
2022/01/30 00:34:50;;;;;;;;;;;;;;;;;;4985107;28;19913;-72
2022/01/30 00:37:18;;;;;;;;;;;;;;;;;;4999595;28;19967;-72
2022/01/30 00:39:44;;;;;;;;;;;;;;;;;;5001193;28;20368;-73
2022/01/30 00:42:11;;;;;;;;;;;;;;;;;;4998236;28;19931;-72
2022/01/30 00:44:39;;;;;;;;;;;;;;;;;;5000393;28;19971;-72
2022/01/30 00:47:06;;;;;;;;;;;;;;;;;;4985301;28;19921;-72
2022/01/30 00:49:33;;;;;;;;;;;;;;;;;;4998983;28;20501;-72
2022/01/30 00:51:59;;;;;;;;;;;;;;;;;;4994498;28;19913;-72
2022/01/30 00:54:25;;;;;;;;;;;;;;;;;;5000197;28;20018;-72
2022/01/30 00:56:53;;;;;;;;;;;;;;;;;;4999385;28;19967;-73
2022/01/30 00:59:19;;;;;;;;;;;;;;;;;;5004112;28;19913;-72
2022/01/30 01:01:45;;;;;;;;;;;;;;;;;;5002499;28;19924;-72
2022/01/30 01:04:11;;;;;;;;;;;;;;;;;;4998799;28;21316;-72
2022/01/30 01:06:40;;;;;;;;;;;;;;;;;;5000571;28;20434;-72
2022/01/30 01:09:11;;;;;;;;;;;;;;;;;;4982322;28;19920;-72
2022/01/30 01:25:05;;;;;;;;;;;;;;;;;;4998671;28;19920;-73
2022/01/30 01:27:31;;;;;;;;;;;;;;;;;;5001159;28;19913;-73
2022/01/30 01:29:57;;;;;;;;;;;;;;;;;;4997714;28;19972;-72
2022/01/30 01:32:25;;;;;;;;;;;;;;;;;;5001346;28;20016;-73
2022/01/30 01:34:52;;;;;;;;;;;;;;;;;;4994772;28;19917;-72
2022/01/30 01:37:19;;;;;;;;;;;;;;;;;;4978920;28;20007;-73
2022/01/30 01:39:45;;;;;;;;;;;;;;;;;;4981252;28;19920;-73
2022/01/30 01:42:14;;;;;;;;;;;;;;;;;;5006195;28;22596;-72
2022/01/30 01:44:45;;;;;;;;;;;;;;;;;;5010357;28;19917;-72
2022/01/30 01:47:11;;;;;;;;;;;;;;;;;;5007581;28;20053;-72
2022/01/30 01:49:39;;;;;;;;;;;;;;;;;;4988947;28;19989;-72
2022/01/30 01:52:19;;;;;;;;;;;;;;;;;;5007422;28;19988;-72
2022/01/30 01:54:48;;;;;;;;;;;;;;;;;;5007997;28;19913;-72
2022/01/30 01:57:14;;;;;;;;;;;;;;;;;;5008532;28;19917;-72
2022/01/30 01:59:41;;;;;;;;;;;;;;;;;;5012523;28;19920;-72
2022/01/30 02:02:07;;;;;;;;;;;;;;;;;;5006461;28;19971;-72
2022/01/30 02:04:34;;;;;;;;;;;;;;;;;;5013896;28;20383;-72
2022/01/30 02:07:28;;;;;;;;;;;;;;;;;;4990609;28;19935;-73
2022/01/30 02:09:46;;;;;;;;;;;;;;;;;;5008669;28;19956;-72
2022/01/30 02:12:19;;;;;;;;;;;;;;;;;;4972300;28;19917;-73
2022/01/30 02:26:00;;;;;;;;;;;;;;;;;;4901155;28;20460;-73
2022/01/30 02:28:27;;;;;;;;;;;;;;;;;;4901286;28;19969;-74
2022/01/30 02:31:10;;;;;;;;;;;;;;;;;;4901089;28;20437;-73
2022/01/30 02:33:36;;;;;;;;;;;;;;;;;;4904958;28;19914;-73
2022/01/30 02:36:22;;;;;;;;;;;;;;;;;;4902112;28;20658;-73
2022/01/30 02:38:48;;;;;;;;;;;;;;;;;;4903009;28;19918;-73
2022/01/30 02:41:14;;;;;;;;;;;;;;;;;;4900045;28;20617;-72
2022/01/30 02:43:53;;;;;;;;;;;;;;;;;;4889566;28;19922;-73
2022/01/30 02:46:32;;;;;;;;;;;;;;;;;;4882293;29;19982;-72
2022/01/30 02:49:11;;;;;;;;;;;;;;;;;;4896152;29;19918;-72
2022/01/30 02:51:53;;;;;;;;;;;;;;;;;;4912459;29;19926;-72
2022/01/30 02:54:20;;;;;;;;;;;;;;;;;;4955929;28;20444;-73
2022/01/30 02:56:46;;;;;;;;;;;;;;;;;;4975975;28;19913;-72
2022/01/30 02:59:32;;;;;;;;;;;;;;;;;;4988893;28;19928;-72
2022/01/30 03:02:01;;;;;;;;;;;;;;;;;;4986577;28;19963;-72
2022/01/30 03:04:27;;;;;;;;;;;;;;;;;;4989458;28;19913;-73
2022/01/30 03:06:53;;;;;;;;;;;;;;;;;;4984072;28;19918;-73
2022/01/30 03:09:20;;;;;;;;;;;;;;;;;;4973809;28;19935;-72
2022/01/30 03:11:46;;;;;;;;;;;;;;;;;;4973142;28;19913;-73
2022/01/30 03:14:13;;;;;;;;;;;;;;;;;;4969946;28;19937;-73
2022/01/30 03:16:39;;;;;;;;;;;;;;;;;;4989920;28;19940;-72
2022/01/30 03:19:05;;;;;;;;;;;;;;;;;;4983140;28;20371;-72
2022/01/30 03:21:31;;;;;;;;;;;;;;;;;;4991669;28;19918;-73
2022/01/30 03:23:57;;;;;;;;;;;;;;;;;;4987050;28;20005;-73
2022/01/30 03:26:23;;;;;;;;;;;;;;;;;;4990821;28;19921;-73
2022/01/30 03:28:51;;;;;;;;;;;;;;;;;;4992471;28;19924;-74
2022/01/30 03:31:19;;;;;;;;;;;;;;;;;;4993261;28;20001;-73
2022/01/30 03:33:46;;;;;;;;;;;;;;;;;;4974486;28;19917;-73
2022/01/30 03:36:32;;;;;;;;;;;;;;;;;;4990966;28;19913;-73
2022/01/30 03:38:59;;;;;;;;;;;;;;;;;;4987049;28;19917;-73
2022/01/30 03:41:26;;;;;;;;;;;;;;;;;;4991820;28;19994;-72
2022/01/30 03:43:53;;;;;;;;;;;;;;;;;;4968016;28;19921;-72
2022/01/30 03:46:20;;;;;;;;;;;;;;;;;;4989147;28;19914;-72
2022/01/30 03:48:47;;;;;;;;;;;;;;;;;;4993195;28;19913;-73
2022/01/30 03:51:13;;;;;;;;;;;;;;;;;;4983876;28;19913;-73
2022/01/30 03:53:39;;;;;;;;;;;;;;;;;;4992246;28;20002;-73
2022/01/30 03:56:21;;;;;;;;;;;;;;;;;;4989798;28;19928;-73
2022/01/30 03:58:48;;;;;;;;;;;;;;;;;;4990083;28;19948;-72
2022/01/30 04:01:17;;;;;;;;;;;;;;;;;;4987090;28;19919;-73
2022/01/30 04:03:44;;;;;;;;;;;;;;;;;;4989881;28;20475;-72
2022/01/30 04:06:12;;;;;;;;;;;;;;;;;;4972886;28;19987;-73
2022/01/30 04:08:39;;;;;;;;;;;;;;;;;;4991349;28;20658;-72
2022/01/30 04:11:06;;;;;;;;;;;;;;;;;;4986235;28;19913;-73
2022/01/30 04:13:33;;;;;;;;;;;;;;;;;;4987656;28;20032;-73
2022/01/30 04:15:59;;;;;;;;;;;;;;;;;;4981571;28;19956;-73
2022/01/30 04:18:25;;;;;;;;;;;;;;;;;;4975815;28;20354;-73
2022/01/30 04:20:51;;;;;;;;;;;;;;;;;;4990245;28;19913;-73
2022/01/30 04:23:18;;;;;;;;;;;;;;;;;;4989075;28;19917;-73
2022/01/30 04:25:44;;;;;;;;;;;;;;;;;;4990900;28;19947;-73
2022/01/30 04:28:11;;;;;;;;;;;;;;;;;;4968675;28;20814;-73
2022/01/30 04:30:37;;;;;;;;;;;;;;;;;;4987949;28;19914;-73
2022/01/30 04:33:04;;;;;;;;;;;;;;;;;;4971096;28;19913;-73
2022/01/30 04:35:31;;;;;;;;;;;;;;;;;;4971845;28;19913;-72
2022/01/30 04:38:06;;;;;;;;;;;;;;;;;;4983591;28;19913;-73
2022/01/30 04:59:29;;;;;;;;;;;;;;;;;;5005910;28;20221;-72
2022/01/30 05:02:11;;;;;;;;;;;;;;;;;;4969207;28;19917;-73
2022/01/30 05:09:48;;;;;;;;;;;;;;;;;;4969910;28;19989;-73
2022/01/30 05:12:15;;;;;;;;;;;;;;;;;;4965874;28;19918;-72
2022/01/30 05:14:44;;;;;;;;;;;;;;;;;;4969895;28;20583;-72
2022/01/30 05:17:10;;;;;;;;;;;;;;;;;;4952892;28;19914;-72
2022/01/30 05:19:37;;;;;;;;;;;;;;;;;;4952156;28;19909;-72
2022/01/30 05:22:05;;;;;;;;;;;;;;;;;;4963936;28;19924;-72
2022/01/30 05:24:31;;;;;;;;;;;;;;;;;;4959944;28;19914;-72
2022/01/30 05:26:59;;;;;;;;;;;;;;;;;;4965737;28;20726;-72
2022/01/30 05:29:26;;;;;;;;;;;;;;;;;;4968403;28;19913;-72
2022/01/30 05:31:52;;;;;;;;;;;;;;;;;;4964535;28;20582;-71
2022/01/30 05:34:18;;;;;;;;;;;;;;;;;;5004480;28;20487;-72
2022/01/30 05:36:44;;;;;;;;;;;;;;;;;;4996866;28;19956;-72
2022/01/30 05:39:11;;;;;;;;;;;;;;;;;;5004469;28;20871;-73
2022/01/30 05:41:37;;;;;;;;;;;;;;;;;;4996514;28;19921;-73
2022/01/30 05:44:11;;;;;;;;;;;;;;;;;;5005918;28;19978;-73
2022/01/30 05:46:50;;;;;;;;;;;;;;;;;;5006216;28;19913;-73
2022/01/30 05:49:17;;;;;;;;;;;;;;;;;;4999627;28;19913;-73
2022/01/30 05:51:44;;;;;;;;;;;;;;;;;;5008466;28;19964;-74
2022/01/30 05:54:10;;;;;;;;;;;;;;;;;;5003645;28;19947;-73
2022/01/30 05:56:37;;;;;;;;;;;;;;;;;;5007011;28;20628;-73
2022/01/30 05:59:03;;;;;;;;;;;;;;;;;;4989241;28;20550;-72
2022/01/30 06:01:29;;;;;;;;;;;;;;;;;;5011219;28;19959;-72
2022/01/30 06:03:55;;;;;;;;;;;;;;;;;;4988592;28;19920;-73
2022/01/30 06:06:21;;;;;;;;;;;;;;;;;;5005519;28;19944;-73
2022/01/30 06:09:00;;;;;;;;;;;;;;;;;;4991605;28;20738;-73
2022/01/30 06:11:27;;;;;;;;;;;;;;;;;;5005591;28;19925;-73
2022/01/30 06:13:54;;;;;;;;;;;;;;;;;;5006194;28;19921;-73
2022/01/30 06:16:20;;;;;;;;;;;;;;;;;;4993204;28;20568;-72
2022/01/30 06:18:47;;;;;;;;;;;;;;;;;;5007557;28;20362;-72
2022/01/30 06:21:14;;;;;;;;;;;;;;;;;;5004150;28;20767;-72
2022/01/30 06:23:41;;;;;;;;;;;;;;;;;;5008257;28;20124;-73
2022/01/30 06:26:07;;;;;;;;;;;;;;;;;;5006227;28;20635;-72
2022/01/30 06:28:34;;;;;;;;;;;;;;;;;;5008894;28;20486;-73
2022/01/30 06:31:01;;;;;;;;;;;;;;;;;;4985597;28;19914;-72
2022/01/30 06:33:27;;;;;;;;;;;;;;;;;;4995377;28;19913;-73
2022/01/30 06:35:53;;;;;;;;;;;;;;;;;;5000301;28;19921;-73
2022/01/30 06:38:20;;;;;;;;;;;;;;;;;;5008816;28;20359;-74
2022/01/30 06:40:46;;;;;;;;;;;;;;;;;;4991705;28;20386;-73
2022/01/30 06:43:12;;;;;;;;;;;;;;;;;;5005479;28;19924;-73
2022/01/30 06:45:42;;;;;;;;;;;;;;;;;;5014394;28;20364;-73
2022/01/30 06:48:08;;;;;;;;;;;;;;;;;;4991572;28;19917;-73
2022/01/30 06:50:34;;;;;;;;;;;;;;;;;;5010982;28;20459;-73
2022/01/30 06:53:00;;;;;;;;;;;;;;;;;;5011063;28;19919;-73
2022/01/30 06:55:26;;;;;;;;;;;;;;;;;;5011785;28;20402;-72
2022/01/30 06:57:53;;;;;;;;;;;;;;;;;;4991612;28;20180;-73
2022/01/30 07:00:19;;;;;;;;;;;;;;;;;;5015692;28;19999;-72
2022/01/30 07:02:47;;;;;;;;;;;;;;;;;;4995890;28;19917;-73
2022/01/30 07:05:14;;;;;;;;;;;;;;;;;;5007374;28;19916;-73
2022/01/30 07:07:42;;;;;;;;;;;;;;;;;;5011034;28;20015;-73
2022/01/30 07:10:08;;;;;;;;;;;;;;;;;;4990979;28;19913;-73
2022/01/30 07:12:35;;;;;;;;;;;;;;;;;;5012757;28;20338;-73
2022/01/30 07:15:01;;;;;;;;;;;;;;;;;;5007775;28;19920;-73
2022/01/30 07:17:28;;;;;;;;;;;;;;;;;;5009282;28;20241;-73
2022/01/30 07:19:57;;;;;;;;;;;;;;;;;;5006577;28;20019;-73
2022/01/30 07:22:27;;;;;;;;;;;;;;;;;;5013396;28;19952;-73
2022/01/30 07:24:54;;;;;;;;;;;;;;;;;;4991820;28;20398;-72
2022/01/30 07:27:20;;;;;;;;;;;;;;;;;;4995203;28;20790;-73
2022/01/30 07:29:47;;;;;;;;;;;;;;;;;;5000373;28;19929;-73
2022/01/30 07:32:14;;;;;;;;;;;;;;;;;;5005720;28;19948;-72
2022/01/30 07:34:40;;;;;;;;;;;;;;;;;;5013007;28;20023;-73
2022/01/30 07:37:06;;;;;;;;;;;;;;;;;;5009779;28;20466;-73
2022/01/30 07:39:36;;;;;;;;;;;;;;;;;;5010522;28;19924;-73
2022/01/30 07:42:02;;;;;;;;;;;;;;;;;;4990034;28;19925;-73
2022/01/30 07:44:28;;;;;;;;;;;;;;;;;;5005202;28;19913;-73
2022/01/30 07:46:54;;;;;;;;;;;;;;;;;;4986683;28;20594;-73
2022/01/30 07:49:20;;;;;;;;;;;;;;;;;;5007535;28;19913;-73
2022/01/30 07:51:46;;;;;;;;;;;;;;;;;;5007419;28;20014;-73
2022/01/30 07:54:12;;;;;;;;;;;;;;;;;;4987708;28;19933;-73
2022/01/30 07:56:38;;;;;;;;;;;;;;;;;;4994137;28;20822;-75
2022/01/30 07:59:05;;;;;;;;;;;;;;;;;;5007410;28;19990;-73
2022/01/30 08:01:31;;;;;;;;;;;;;;;;;;4997550;28;19990;-73
2022/01/30 08:03:58;;;;;;;;;;;;;;;;;;5005012;28;19927;-73
2022/01/30 08:06:26;;;;;;;;;;;;;;;;;;5010278;28;19991;-73
2022/01/30 08:08:54;;;;;;;;;;;;;;;;;;4988878;28;19913;-75
2022/01/30 08:11:20;;;;;;;;;;;;;;;;;;4992427;28;20411;-75
2022/01/30 08:13:46;;;;;;;;;;;;;;;;;;5002322;28;19932;-74
2022/01/30 08:16:13;;;;;;;;;;;;;;;;;;5005846;28;19944;-74
2022/01/30 08:18:39;;;;;;;;;;;;;;;;;;5001179;28;19951;-73
2022/01/30 08:21:07;;;;;;;;;;;;;;;;;;5005428;28;19912;-73
2022/01/30 08:23:34;;;;;;;;;;;;;;;;;;4991497;28;19924;-73
2022/01/30 08:26:00;;;;;;;;;;;;;;;;;;5000298;28;19940;-74
2022/01/30 08:28:26;;;;;;;;;;;;;;;;;;5006136;28;20019;-73
2022/01/30 08:30:54;;;;;;;;;;;;;;;;;;5000647;28;19983;-73
2022/01/30 08:33:20;;;;;;;;;;;;;;;;;;5007648;28;19924;-74
2022/01/30 08:35:47;;;;;;;;;;;;;;;;;;5007384;28;19919;-73
2022/01/30 08:38:18;;;;;;;;;;;;;;;;;;5000431;28;19991;-74
2022/01/30 08:40:46;;;;;;;;;;;;;;;;;;5006250;28;19917;-73
2022/01/30 08:43:12;;;;;;;;;;;;;;;;;;5000836;28;21357;-74
2022/01/30 08:45:39;;;;;;;;;;;;;;;;;;4991813;28;20520;-74
2022/01/30 08:48:05;;;;;;;;;;;;;;;;;;5004040;28;19956;-74
2022/01/30 08:50:32;;;;;;;;;;;;;;;;;;4992749;28;20047;-73
2022/01/30 08:52:59;;;;;;;;;;;;;;;;;;5002892;28;19920;-73
2022/01/30 08:55:29;;;;;;;;;;;;;;;;;;4991147;28;19913;-73
2022/01/30 08:57:57;;;;;;;;;;;;;;;;;;5007173;28;19912;-73
2022/01/30 09:00:23;;;;;;;;;;;;;;;;;;5004175;28;19980;-73
2022/01/30 09:02:51;;;;;;;;;;;;;;;;;;5009239;28;20741;-73
2022/01/30 09:05:21;;;;;;;;;;;;;;;;;;5009486;28;19913;-74
2022/01/30 09:07:48;;;;;;;;;;;;;;;;;;5006878;28;20434;-74
2022/01/30 09:10:14;;;;;;;;;;;;;;;;;;5003323;28;19935;-74
2022/01/30 09:12:41;;;;;;;;;;;;;;;;;;5006167;28;19913;-74
2022/01/30 09:15:07;;;;;;;;;;;;;;;;;;5003115;28;19948;-74
2022/01/30 09:17:33;;;;;;;;;;;;;;;;;;5005561;28;20014;-72
2022/01/30 09:20:01;;;;;;;;;;;;;;;;;;4997512;28;19935;-72
2022/01/30 09:22:27;;;;;;;;;;;;;;;;;;4980188;28;20059;-72
2022/01/30 09:24:53;;;;;;;;;;;;;;;;;;4984153;28;19917;-73
2022/01/30 09:27:20;;;;;;;;;;;;;;;;;;5008239;28;20466;-74
2022/01/30 09:29:46;;;;;;;;;;;;;;;;;;4999628;28;20466;-74
2022/01/30 09:32:14;;;;;;;;;;;;;;;;;;4998272;28;19917;-73
2022/01/30 09:34:40;;;;;;;;;;;;;;;;;;5000659;28;19945;-73
2022/01/30 09:37:07;;;;;;;;;;;;;;;;;;5001295;28;19909;-73
2022/01/30 09:39:33;;;;;;;;;;;;;;;;;;5001419;28;20004;-72
2022/01/30 09:41:59;;;;;;;;;;;;;;;;;;4984502;28;20039;-74
2022/01/30 09:44:25;;;;;;;;;;;;;;;;;;5002334;28;19916;-72
2022/01/30 09:46:52;;;;;;;;;;;;;;;;;;5003017;28;19948;-72
2022/01/30 09:49:21;;;;;;;;;;;;;;;;;;4991151;28;19913;-72
2022/01/30 09:51:47;;;;;;;;;;;;;;;;;;5000297;28;20023;-73
2022/01/30 09:54:13;;;;;;;;;;;;;;;;;;4993804;28;19982;-73
2022/01/30 09:56:39;;;;;;;;;;;;;;;;;;4987913;28;19924;-72
2022/01/30 09:59:07;;;;;;;;;;;;;;;;;;4999933;28;19952;-72
2022/01/30 10:01:34;;;;;;;;;;;;;;;;;;5003707;28;19927;-72
2022/01/30 10:04:00;;;;;;;;;;;;;;;;;;5000995;28;19914;-69
2022/01/30 10:06:32;;;;;;;;;;;;;;;;;;5002685;28;19913;-69
2022/01/30 10:09:05;;;;;;;;;;;;;;;;;;5001829;28;19917;-69
2022/01/30 10:11:35;;;;;;;;;;;;;;;;;;5005118;28;19995;-68
2022/01/30 10:14:01;;;;;;;;;;;;;;;;;;5001142;28;19935;-68
2022/01/30 10:16:27;;;;;;;;;;;;;;;;;;5003542;28;20406;-69
2022/01/30 10:18:55;;;;;;;;;;;;;;;;;;5000018;28;19913;-69
2022/01/30 10:21:22;;;;;;;;;;;;;;;;;;5004782;28;19913;-69
2022/01/30 10:23:48;;;;;;;;;;;;;;;;;;5005390;28;20505;-69
2022/01/30 10:26:18;;;;;;;;;;;;;;;;;;4996577;28;20012;-69
2022/01/30 10:28:45;;;;;;;;;;;;;;;;;;5001006;28;19913;-70
2022/01/30 10:31:11;;;;;;;;;;;;;;;;;;5001008;28;19991;-70
2022/01/30 10:33:37;;;;;;;;;;;;;;;;;;5004929;28;19985;-70
2022/01/30 10:36:08;;;;;;;;;;;;;;;;;;5001913;28;20242;-70
2022/01/30 10:38:38;;;;;;;;;;;;;;;;;;5006505;28;19955;-70
2022/01/30 10:41:12;;;;;;;;;;;;;;;;;;5001891;28;20288;-71
2022/01/30 10:43:40;;;;;;;;;;;;;;;;;;5010400;28;20385;-71
2022/01/30 10:46:06;;;;;;;;;;;;;;;;;;5003660;28;20023;-70
2022/01/30 10:48:33;;;;;;;;;;;;;;;;;;4996983;28;19913;-71
2022/01/30 10:50:59;;;;;;;;;;;;;;;;;;5005618;28;19975;-69
2022/01/30 10:53:26;;;;;;;;;;;;;;;;;;5008647;28;19971;-70
2022/01/30 10:55:52;;;;;;;;;;;;;;;;;;4992105;28;20186;-69
2022/01/30 10:58:20;;;;;;;;;;;;;;;;;;5007806;28;19919;-69
2022/01/30 11:00:46;;;;;;;;;;;;;;;;;;5006274;28;19912;-70
2022/01/30 11:03:12;;;;;;;;;;;;;;;;;;5005000;28;21709;-70
2022/01/30 11:05:38;;;;;;;;;;;;;;;;;;5004282;28;19920;-71
2022/01/30 11:08:04;;;;;;;;;;;;;;;;;;5000550;28;19917;-69
2022/01/30 11:10:32;;;;;;;;;;;;;;;;;;5007556;28;19917;-69
2022/01/30 11:13:08;;;;;;;;;;;;;;;;;;4999546;28;19913;-70
2022/01/30 11:15:36;;;;;;;;;;;;;;;;;;5006881;28;19995;-69
2022/01/30 11:18:04;;;;;;;;;;;;;;;;;;5000837;28;20286;-69
2022/01/30 11:20:32;;;;;;;;;;;;;;;;;;5004137;28;20641;-70
2022/01/30 11:22:58;;;;;;;;;;;;;;;;;;5002634;28;19991;-70
2022/01/30 11:25:24;;;;;;;;;;;;;;;;;;4991705;28;20657;-69
2022/01/30 11:27:51;;;;;;;;;;;;;;;;;;5005900;28;19917;-70
2022/01/30 11:30:18;;;;;;;;;;;;;;;;;;5003349;28;19917;-70
2022/01/30 11:32:44;;;;;;;;;;;;;;;;;;5000571;28;19920;-70
2022/01/30 11:35:11;;;;;;;;;;;;;;;;;;5000769;28;19920;-69
2022/01/30 11:37:37;;;;;;;;;;;;;;;;;;4988860;28;19913;-70
2022/01/30 11:40:05;;;;;;;;;;;;;;;;;;5005043;28;19947;-70
2022/01/30 11:42:31;;;;;;;;;;;;;;;;;;5003277;28;19947;-70
2022/01/30 11:44:57;;;;;;;;;;;;;;;;;;4999705;28;20753;-69
2022/01/30 11:47:23;;;;;;;;;;;;;;;;;;4988205;28;19917;-72
2022/01/30 11:49:49;;;;;;;;;;;;;;;;;;4986668;28;20781;-71
2022/01/30 11:52:16;;;;;;;;;;;;;;;;;;4987821;28;19940;-70
2022/01/30 11:54:43;;;;;;;;;;;;;;;;;;4989359;28;19913;-70
2022/01/30 11:57:09;;;;;;;;;;;;;;;;;;5003087;28;20644;-71
2022/01/30 11:59:38;;;;;;;;;;;;;;;;;;5005159;28;19917;-70
2022/01/30 12:02:05;;;;;;;;;;;;;;;;;;4984354;28;20429;-70
2022/01/30 12:04:36;;;;;;;;;;;;;;;;;;4992764;28;19917;-69
2022/01/30 12:07:02;;;;;;;;;;;;;;;;;;4987336;28;19960;-69
2022/01/30 12:09:29;;;;;;;;;;;;;;;;;;5006978;28;19913;-70
2022/01/30 12:11:56;;;;;;;;;;;;;;;;;;5004775;28;19959;-72
2022/01/30 12:14:22;;;;;;;;;;;;;;;;;;5005608;28;19913;-71
2022/01/30 12:17:12;;;;;;;;;;;;;;;;;;5006668;28;19924;-72
2022/01/30 12:19:47;;;;;;;;;;;;;;;;;;5008545;28;20576;-70
2022/01/30 12:22:15;;;;;;;;;;;;;;;;;;5003463;28;20015;-74
2022/01/30 12:24:40;;;;;;;;;;;;;;;;;;5006762;28;19913;-71
2022/01/30 12:27:06;;;;;;;;;;;;;;;;;;5002999;28;19913;-70
2022/01/30 12:29:34;;;;;;;;;;;;;;;;;;5006678;28;19944;-70
2022/01/30 12:32:00;;;;;;;;;;;;;;;;;;5003310;28;20110;-71
2022/01/30 12:34:26;;;;;;;;;;;;;;;;;;5007540;28;19916;-70
2022/01/30 12:36:52;;;;;;;;;;;;;;;;;;5005262;28;20031;-71
2022/01/30 12:39:23;;;;;;;;;;;;;;;;;;5009218;28;19913;-70
2022/01/30 12:41:49;;;;;;;;;;;;;;;;;;5004695;28;20068;-71
2022/01/30 12:44:15;;;;;;;;;;;;;;;;;;5001041;28;20008;-71
2022/01/30 12:46:46;;;;;;;;;;;;;;;;;;4990922;28;19955;-71
2022/01/30 12:49:12;;;;;;;;;;;;;;;;;;4985279;28;19917;-71
2022/01/30 12:51:39;;;;;;;;;;;;;;;;;;5005501;28;19987;-71
2022/01/30 12:54:07;;;;;;;;;;;;;;;;;;5000524;28;20525;-71
2022/01/30 12:56:33;;;;;;;;;;;;;;;;;;5006318;28;20278;-71
2022/01/30 12:59:06;;;;;;;;;;;;;;;;;;4984685;28;20406;-71
2022/01/30 13:01:33;;;;;;;;;;;;;;;;;;5004075;28;19921;-71
2022/01/30 13:03:59;;;;;;;;;;;;;;;;;;4980040;28;20451;-71
2022/01/30 13:06:25;;;;;;;;;;;;;;;;;;4981004;28;19924;-70
2022/01/30 13:08:52;;;;;;;;;;;;;;;;;;4980019;28;20431;-70
2022/01/30 13:11:18;;;;;;;;;;;;;;;;;;4966904;28;19985;-70
2022/01/30 13:13:45;;;;;;;;;;;;;;;;;;4982009;28;19914;-72
2022/01/30 13:16:11;;;;;;;;;;;;;;;;;;4979414;28;19917;-70
2022/01/30 13:18:37;;;;;;;;;;;;;;;;;;4965120;28;19959;-70
2022/01/30 13:21:03;;;;;;;;;;;;;;;;;;4975998;28;19913;-71
2022/01/30 13:23:30;;;;;;;;;;;;;;;;;;4980736;28;20409;-70
2022/01/30 13:25:59;;;;;;;;;;;;;;;;;;4978641;28;20414;-70
2022/01/30 13:28:28;;;;;;;;;;;;;;;;;;4980554;28;19917;-70
2022/01/30 13:30:56;;;;;;;;;;;;;;;;;;4975857;28;19913;-74
2022/01/30 13:33:24;;;;;;;;;;;;;;;;;;4981953;28;20081;-74
2022/01/30 13:35:51;;;;;;;;;;;;;;;;;;4982780;28;19909;-71
2022/01/30 13:38:24;;;;;;;;;;;;;;;;;;4981891;28;19964;-71
2022/01/30 13:40:59;;;;;;;;;;;;;;;;;;4981461;28;19909;-73
2022/01/30 13:43:30;;;;;;;;;;;;;;;;;;4967106;28;19925;-71
2022/01/30 13:48:44;;;;;;;;;;;;;;;;;;4983494;28;20120;-71
2022/01/30 13:51:15;;;;;;;;;;;;;;;;;;4992814;28;19925;-71
2022/01/30 13:53:41;;;;;;;;;;;;;;;;;;4973858;28;20692;-70
2022/01/30 13:56:09;;;;;;;;;;;;;;;;;;5006259;28;20048;-71
2022/01/30 13:58:35;;;;;;;;;;;;;;;;;;5007127;28;19913;-70
2022/01/30 14:01:03;;;;;;;;;;;;;;;;;;5007912;28;19929;-70
2022/01/30 14:03:30;;;;;;;;;;;;;;;;;;5008969;28;19963;-72
2022/01/30 14:05:58;;;;;;;;;;;;;;;;;;5003699;28;20036;-71
2022/01/30 14:08:25;;;;;;;;;;;;;;;;;;5007380;28;19919;-72
2022/01/30 14:10:51;;;;;;;;;;;;;;;;;;5005507;28;19919;-70
2022/01/30 14:13:20;;;;;;;;;;;;;;;;;;4992601;28;19916;-70
2022/01/30 14:15:47;;;;;;;;;;;;;;;;;;5010877;28;20701;-71
2022/01/30 14:18:14;;;;;;;;;;;;;;;;;;5006618;28;19917;-71
2022/01/30 14:20:43;;;;;;;;;;;;;;;;;;5007206;28;20413;-70
2022/01/30 14:23:11;;;;;;;;;;;;;;;;;;4999398;28;20556;-70
2022/01/30 14:25:39;;;;;;;;;;;;;;;;;;5004940;28;20088;-70
2022/01/30 14:28:04;;;;;;;;;;;;;;;;;;5004509;28;19913;-70
2022/01/30 14:30:31;;;;;;;;;;;;;;;;;;4990505;28;20450;-70
2022/01/30 14:32:59;;;;;;;;;;;;;;;;;;5006749;28;20010;-70
2022/01/30 14:35:25;;;;;;;;;;;;;;;;;;5004547;28;19913;-70
2022/01/30 14:37:51;;;;;;;;;;;;;;;;;;5004194;28;19939;-70
2022/01/30 14:40:18;;;;;;;;;;;;;;;;;;4999691;28;19919;-70
2022/01/30 14:42:45;;;;;;;;;;;;;;;;;;5003920;28;20302;-70
2022/01/30 14:45:14;;;;;;;;;;;;;;;;;;4998354;28;20490;-70
2022/01/30 14:47:40;;;;;;;;;;;;;;;;;;5003840;28;19916;-70
2022/01/30 14:50:06;;;;;;;;;;;;;;;;;;4981673;28;19980;-70
2022/01/30 14:52:33;;;;;;;;;;;;;;;;;;4989437;28;20337;-70
2022/01/30 14:54:59;;;;;;;;;;;;;;;;;;4999589;28;19924;-70
2022/01/30 14:57:27;;;;;;;;;;;;;;;;;;5001216;28;19913;-70
2022/01/30 14:59:53;;;;;;;;;;;;;;;;;;4997697;28;19913;-69
2022/01/30 15:02:19;;;;;;;;;;;;;;;;;;4987866;28;20008;-69
2022/01/30 15:04:46;;;;;;;;;;;;;;;;;;4992389;28;20011;-70
2022/01/30 15:07:14;;;;;;;;;;;;;;;;;;5001096;28;19917;-70
2022/01/30 15:09:42;;;;;;;;;;;;;;;;;;5007818;28;19913;-70
2022/01/30 15:12:12;;;;;;;;;;;;;;;;;;5003138;28;19912;-71
2022/01/30 15:14:38;;;;;;;;;;;;;;;;;;4992522;28;19971;-71
2022/01/30 15:17:07;;;;;;;;;;;;;;;;;;5002497;28;21197;-71
2022/01/30 15:19:42;;;;;;;;;;;;;;;;;;5002775;28;19919;-70
2022/01/30 15:22:08;;;;;;;;;;;;;;;;;;4984274;28;19917;-71
2022/01/30 15:24:34;;;;;;;;;;;;;;;;;;5004573;28;20374;-71
2022/01/30 15:27:03;;;;;;;;;;;;;;;;;;4983924;28;20468;-70
2022/01/30 15:29:39;;;;;;;;;;;;;;;;;;5004660;28;20252;-70
2022/01/30 15:32:08;;;;;;;;;;;;;;;;;;5000641;28;19995;-70
2022/01/30 15:34:34;;;;;;;;;;;;;;;;;;5006636;28;20434;-70
2022/01/30 15:37:00;;;;;;;;;;;;;;;;;;5000255;28;20339;-70
2022/01/30 15:39:26;;;;;;;;;;;;;;;;;;5006507;28;19952;-71
2022/01/30 15:41:54;;;;;;;;;;;;;;;;;;5000334;28;20655;-71
2022/01/30 15:44:20;;;;;;;;;;;;;;;;;;5005326;28;20035;-71
2022/01/30 15:49:31;;;;;;;;;;;;;;;;;;5003995;28;20785;-71
2022/01/30 15:51:57;;;;;;;;;;;;;;;;;;5000116;28;19916;-71
2022/01/30 15:54:23;;;;;;;;;;;;;;;;;;4988120;28;19939;-71
2022/01/30 15:56:49;;;;;;;;;;;;;;;;;;5004493;28;19917;-71
2022/01/30 15:59:19;;;;;;;;;;;;;;;;;;5000551;28;19913;-70
2022/01/30 16:01:45;;;;;;;;;;;;;;;;;;4986106;28;20406;-69
2022/01/30 16:04:13;;;;;;;;;;;;;;;;;;4983213;28;21424;-70
2022/01/30 16:06:41;;;;;;;;;;;;;;;;;;5006178;28;19921;-70
2022/01/30 16:09:17;;;;;;;;;;;;;;;;;;4996550;28;20003;-70
2022/01/30 16:16:56;;;;;;;;;;;;;;;;;;5000789;28;19968;-70
2022/01/30 16:19:23;;;;;;;;;;;;;;;;;;5003709;28;20039;-70
2022/01/30 16:21:49;;;;;;;;;;;;;;;;;;5000956;28;19971;-70
2022/01/30 16:24:16;;;;;;;;;;;;;;;;;;4998689;28;19921;-69
2022/01/30 16:26:42;;;;;;;;;;;;;;;;;;5004180;28;19912;-71
2022/01/30 16:29:08;;;;;;;;;;;;;;;;;;4983649;28;19919;-70
2022/01/30 16:31:34;;;;;;;;;;;;;;;;;;5000541;28;19952;-70
2022/01/30 16:34:01;;;;;;;;;;;;;;;;;;5000406;28;20401;-69
2022/01/30 16:36:27;;;;;;;;;;;;;;;;;;5005306;28;20887;-68
2022/01/30 16:38:55;;;;;;;;;;;;;;;;;;5004094;28;19939;-69
2022/01/30 16:41:23;;;;;;;;;;;;;;;;;;4999628;28;20462;-68
2022/01/30 16:43:57;;;;;;;;;;;;;;;;;;4985588;28;19921;-69
2022/01/30 16:48:52;;;;;;;;;;;;;;;;;;4999366;28;20145;-68
2022/01/30 16:51:19;;;;;;;;;;;;;;;;;;5000878;28;19913;-69
2022/01/30 16:53:45;;;;;;;;;;;;;;;;;;5005045;28;19932;-69
2022/01/30 16:56:11;;;;;;;;;;;;;;;;;;4982067;28;19917;-69
2022/01/30 16:58:37;;;;;;;;;;;;;;;;;;4981660;28;20487;-68
2022/01/30 17:01:05;;;;;;;;;;;;;;;;;;5000053;28;20474;-69
2022/01/30 17:03:32;;;;;;;;;;;;;;;;;;5002660;28;19923;-68
2022/01/30 17:05:59;;;;;;;;;;;;;;;;;;5000346;28;19948;-69
2022/01/30 17:08:28;;;;;;;;;;;;;;;;;;5002480;28;20030;-68
2022/01/30 17:11:02;;;;;;;;;;;;;;;;;;4979851;28;20052;-69
2022/01/30 17:13:29;;;;;;;;;;;;;;;;;;4980888;28;20041;-66
2022/01/30 17:15:57;;;;;;;;;;;;;;;;;;4962156;28;19913;-66
2022/01/30 17:18:24;;;;;;;;;;;;;;;;;;4964024;28;20381;-66
2022/01/30 17:20:50;;;;;;;;;;;;;;;;;;4982547;28;19988;-65
2022/01/30 17:23:16;;;;;;;;;;;;;;;;;;4977507;28;19927;-65
2022/01/30 17:25:44;;;;;;;;;;;;;;;;;;4981140;28;19913;-66
2022/01/30 17:28:12;;;;;;;;;;;;;;;;;;4975929;28;19924;-68
2022/01/30 17:30:39;;;;;;;;;;;;;;;;;;4974311;28;19913;-69
2022/01/30 17:33:07;;;;;;;;;;;;;;;;;;4979612;28;19909;-69
2022/01/30 17:35:34;;;;;;;;;;;;;;;;;;4982850;28;19917;-69
2022/01/30 17:38:02;;;;;;;;;;;;;;;;;;4978098;28;19913;-70
2022/01/30 17:40:29;;;;;;;;;;;;;;;;;;4982507;28;20474;-69
2022/01/30 17:42:55;;;;;;;;;;;;;;;;;;4977028;28;20087;-69
2022/01/30 17:45:21;;;;;;;;;;;;;;;;;;4981786;28;20653;-70
2022/01/30 17:47:49;;;;;;;;;;;;;;;;;;4980006;28;19920;-69
2022/01/30 17:50:15;;;;;;;;;;;;;;;;;;4974966;28;20629;-69
2022/01/30 17:52:41;;;;;;;;;;;;;;;;;;4981239;28;20670;-69